sensor_id;sensor_type;location;lat;lon;timestamp;temperature;humidity
10046;DHT22;5063;50.878;4.742;2023-05-07T00:01:45;14.50;99.90
10046;DHT22;5063;50.878;4.742;2023-05-07T00:04:11;14.60;99.90
10046;DHT22;5063;50.878;4.742;2023-05-07T00:06:37;14.60;99.90
10046;DHT22;5063;50.878;4.742;2023-05-07T00:09:03;14.60;99.90
10046;DHT22;5063;50.878;4.742;2023-05-07T00:11:29;14.70;99.90
10046;DHT22;5063;50.878;4.742;2023-05-07T00:13:55;14.70;99.90
10046;DHT22;5063;50.878;4.742;2023-05-07T00:16:21;14.70;99.90
10046;DHT22;5063;50.878;4.742;2023-05-07T00:18:47;14.70;99.90
10046;DHT22;5063;50.878;4.742;2023-05-07T00:21:12;14.70;99.90
10046;DHT22;5063;50.878;4.742;2023-05-07T00:23:38;14.70;99.90
10046;DHT22;5063;50.878;4.742;2023-05-07T00:26:04;14.70;99.90
10046;DHT22;5063;50.878;4.742;2023-05-07T00:28:30;14.70;99.90
10046;DHT22;5063;50.878;4.742;2023-05-07T00:30:56;14.70;99.90
10046;DHT22;5063;50.878;4.742;2023-05-07T00:33:21;14.70;99.90
10046;DHT22;5063;50.878;4.742;2023-05-07T00:35:48;14.70;99.90
10046;DHT22;5063;50.878;4.742;2023-05-07T00:38:13;14.70;99.90
10046;DHT22;5063;50.878;4.742;2023-05-07T00:40:39;14.60;99.90
10046;DHT22;5063;50.878;4.742;2023-05-07T00:43:05;14.60;99.90
10046;DHT22;5063;50.878;4.742;2023-05-07T00:45:32;14.60;99.90
10046;DHT22;5063;50.878;4.742;2023-05-07T00:48:00;14.60;99.90
10046;DHT22;5063;50.878;4.742;2023-05-07T00:50:27;14.50;99.90
10046;DHT22;5063;50.878;4.742;2023-05-07T00:52:53;14.60;99.90
10046;DHT22;5063;50.878;4.742;2023-05-07T00:55:20;14.60;99.90
10046;DHT22;5063;50.878;4.742;2023-05-07T00:57:46;14.60;99.90
10046;DHT22;5063;50.878;4.742;2023-05-07T01:00:12;14.60;99.90
10046;DHT22;5063;50.878;4.742;2023-05-07T01:02:42;14.50;99.90
10046;DHT22;5063;50.878;4.742;2023-05-07T01:05:10;14.50;99.90
10046;DHT22;5063;50.878;4.742;2023-05-07T01:07:39;14.50;99.90
10046;DHT22;5063;50.878;4.742;2023-05-07T01:10:06;14.50;99.90
10046;DHT22;5063;50.878;4.742;2023-05-07T01:12:34;14.50;99.90
10046;DHT22;5063;50.878;4.742;2023-05-07T01:15:01;14.50;99.90
10046;DHT22;5063;50.878;4.742;2023-05-07T01:17:27;14.40;99.90
10046;DHT22;5063;50.878;4.742;2023-05-07T01:19:53;14.50;99.90
10046;DHT22;5063;50.878;4.742;2023-05-07T01:22:35;14.50;99.90
10046;DHT22;5063;50.878;4.742;2023-05-07T01:25:03;14.50;99.90
10046;DHT22;5063;50.878;4.742;2023-05-07T01:27:29;14.50;99.90
10046;DHT22;5063;50.878;4.742;2023-05-07T01:29:54;14.50;99.90
10046;DHT22;5063;50.878;4.742;2023-05-07T01:32:32;14.50;99.90
10046;DHT22;5063;50.878;4.742;2023-05-07T01:35:00;14.50;99.90
10046;DHT22;5063;50.878;4.742;2023-05-07T01:37:26;14.50;99.90
10046;DHT22;5063;50.878;4.742;2023-05-07T01:39:52;14.50;99.90
10046;DHT22;5063;50.878;4.742;2023-05-07T01:42:19;14.50;99.90
10046;DHT22;5063;50.878;4.742;2023-05-07T01:44:45;14.50;99.90
10046;DHT22;5063;50.878;4.742;2023-05-07T01:47:12;14.50;99.90
10046;DHT22;5063;50.878;4.742;2023-05-07T01:49:39;14.50;99.90
10046;DHT22;5063;50.878;4.742;2023-05-07T01:52:05;14.60;99.90
10046;DHT22;5063;50.878;4.742;2023-05-07T01:54:31;14.60;99.90
10046;DHT22;5063;50.878;4.742;2023-05-07T01:56:57;14.60;99.90
10046;DHT22;5063;50.878;4.742;2023-05-07T01:59:23;14.60;99.90
10046;DHT22;5063;50.878;4.742;2023-05-07T02:01:49;14.70;99.90
10046;DHT22;5063;50.878;4.742;2023-05-07T02:04:14;14.60;99.90
10046;DHT22;5063;50.878;4.742;2023-05-07T02:06:40;14.70;99.90
10046;DHT22;5063;50.878;4.742;2023-05-07T02:09:06;14.70;99.90
10046;DHT22;5063;50.878;4.742;2023-05-07T02:11:32;14.60;99.90
10046;DHT22;5063;50.878;4.742;2023-05-07T02:13:57;14.60;99.90
10046;DHT22;5063;50.878;4.742;2023-05-07T02:16:23;14.70;99.90
10046;DHT22;5063;50.878;4.742;2023-05-07T02:18:49;14.70;99.90
10046;DHT22;5063;50.878;4.742;2023-05-07T02:21:15;14.70;99.90
10046;DHT22;5063;50.878;4.742;2023-05-07T02:23:41;14.70;99.90
10046;DHT22;5063;50.878;4.742;2023-05-07T02:26:06;14.70;99.90
10046;DHT22;5063;50.878;4.742;2023-05-07T02:28:32;14.70;99.90
10046;DHT22;5063;50.878;4.742;2023-05-07T02:31:02;14.70;99.90
10046;DHT22;5063;50.878;4.742;2023-05-07T02:33:28;14.70;99.90
10046;DHT22;5063;50.878;4.742;2023-05-07T02:35:54;14.70;99.90
10046;DHT22;5063;50.878;4.742;2023-05-07T02:38:19;14.70;99.90
10046;DHT22;5063;50.878;4.742;2023-05-07T02:40:45;14.70;99.90
10046;DHT22;5063;50.878;4.742;2023-05-07T02:43:11;14.60;99.90
10046;DHT22;5063;50.878;4.742;2023-05-07T02:45:37;14.60;99.90
10046;DHT22;5063;50.878;4.742;2023-05-07T02:48:03;14.60;99.90
10046;DHT22;5063;50.878;4.742;2023-05-07T02:50:29;14.60;99.90
10046;DHT22;5063;50.878;4.742;2023-05-07T02:52:55;14.50;99.90
10046;DHT22;5063;50.878;4.742;2023-05-07T02:55:21;14.50;99.90
10046;DHT22;5063;50.878;4.742;2023-05-07T02:57:47;14.50;99.90
10046;DHT22;5063;50.878;4.742;2023-05-07T03:00:17;14.60;99.90
10046;DHT22;5063;50.878;4.742;2023-05-07T03:02:44;14.60;99.90
10046;DHT22;5063;50.878;4.742;2023-05-07T03:05:10;14.70;99.90
10046;DHT22;5063;50.878;4.742;2023-05-07T03:07:37;14.60;99.90
10046;DHT22;5063;50.878;4.742;2023-05-07T03:10:04;14.60;99.90
10046;DHT22;5063;50.878;4.742;2023-05-07T03:12:30;14.50;99.90
10046;DHT22;5063;50.878;4.742;2023-05-07T03:14:57;14.60;99.90
10046;DHT22;5063;50.878;4.742;2023-05-07T03:17:22;14.60;99.90
10046;DHT22;5063;50.878;4.742;2023-05-07T03:19:48;14.60;99.90
10046;DHT22;5063;50.878;4.742;2023-05-07T03:22:14;14.70;99.90
10046;DHT22;5063;50.878;4.742;2023-05-07T03:24:40;14.70;99.90
10046;DHT22;5063;50.878;4.742;2023-05-07T03:27:05;14.70;99.90
10046;DHT22;5063;50.878;4.742;2023-05-07T03:29:31;14.80;99.90
10046;DHT22;5063;50.878;4.742;2023-05-07T03:31:57;14.80;99.90
10046;DHT22;5063;50.878;4.742;2023-05-07T03:34:23;14.80;99.90
10046;DHT22;5063;50.878;4.742;2023-05-07T03:36:49;14.80;99.90
10046;DHT22;5063;50.878;4.742;2023-05-07T03:39:15;14.80;99.90
10046;DHT22;5063;50.878;4.742;2023-05-07T03:41:41;14.80;99.90
10046;DHT22;5063;50.878;4.742;2023-05-07T03:44:07;14.70;99.90
10046;DHT22;5063;50.878;4.742;2023-05-07T03:46:33;14.70;99.90
10046;DHT22;5063;50.878;4.742;2023-05-07T03:48:59;14.70;99.90
10046;DHT22;5063;50.878;4.742;2023-05-07T03:51:25;14.60;99.90
10046;DHT22;5063;50.878;4.742;2023-05-07T03:53:51;14.70;99.90
10046;DHT22;5063;50.878;4.742;2023-05-07T03:56:22;14.60;99.90
10046;DHT22;5063;50.878;4.742;2023-05-07T03:58:48;14.60;99.90
10046;DHT22;5063;50.878;4.742;2023-05-07T04:01:14;14.60;99.90
10046;DHT22;5063;50.878;4.742;2023-05-07T04:03:40;14.70;99.90
10046;DHT22;5063;50.878;4.742;2023-05-07T04:06:05;14.70;99.90
10046;DHT22;5063;50.878;4.742;2023-05-07T04:08:31;14.70;99.90
10046;DHT22;5063;50.878;4.742;2023-05-07T04:10:58;14.80;99.90
10046;DHT22;5063;50.878;4.742;2023-05-07T04:13:24;14.80;99.90
10046;DHT22;5063;50.878;4.742;2023-05-07T04:15:51;14.80;99.90
10046;DHT22;5063;50.878;4.742;2023-05-07T04:18:17;14.80;99.90
10046;DHT22;5063;50.878;4.742;2023-05-07T04:20:43;14.80;99.90
10046;DHT22;5063;50.878;4.742;2023-05-07T04:23:09;14.80;99.90
10046;DHT22;5063;50.878;4.742;2023-05-07T04:25:34;14.70;99.90
10046;DHT22;5063;50.878;4.742;2023-05-07T04:28:00;14.70;99.90
10046;DHT22;5063;50.878;4.742;2023-05-07T04:30:26;14.70;99.90
10046;DHT22;5063;50.878;4.742;2023-05-07T04:32:52;14.70;99.90
10046;DHT22;5063;50.878;4.742;2023-05-07T04:35:18;14.60;99.90
10046;DHT22;5063;50.878;4.742;2023-05-07T04:37:44;14.60;99.90
10046;DHT22;5063;50.878;4.742;2023-05-07T04:40:10;14.70;99.90
10046;DHT22;5063;50.878;4.742;2023-05-07T04:42:36;14.70;99.90
10046;DHT22;5063;50.878;4.742;2023-05-07T04:45:02;14.70;99.90
10046;DHT22;5063;50.878;4.742;2023-05-07T04:47:28;14.70;99.90
10046;DHT22;5063;50.878;4.742;2023-05-07T04:49:54;14.70;99.90
10046;DHT22;5063;50.878;4.742;2023-05-07T04:52:19;14.70;99.90
10046;DHT22;5063;50.878;4.742;2023-05-07T04:54:45;14.80;99.90
10046;DHT22;5063;50.878;4.742;2023-05-07T04:57:11;14.90;99.90
10046;DHT22;5063;50.878;4.742;2023-05-07T04:59:37;15.00;99.90
10046;DHT22;5063;50.878;4.742;2023-05-07T05:02:02;15.10;99.90
10046;DHT22;5063;50.878;4.742;2023-05-07T05:04:29;15.30;99.90
10046;DHT22;5063;50.878;4.742;2023-05-07T05:06:55;15.50;99.90
10046;DHT22;5063;50.878;4.742;2023-05-07T05:09:21;15.60;99.90
10046;DHT22;5063;50.878;4.742;2023-05-07T05:11:47;15.70;99.90
10046;DHT22;5063;50.878;4.742;2023-05-07T05:14:13;15.80;99.90
10046;DHT22;5063;50.878;4.742;2023-05-07T05:16:39;15.90;99.90
10046;DHT22;5063;50.878;4.742;2023-05-07T05:19:04;15.90;99.90
10046;DHT22;5063;50.878;4.742;2023-05-07T05:21:31;16.00;99.90
10046;DHT22;5063;50.878;4.742;2023-05-07T05:23:58;16.10;99.90
10046;DHT22;5063;50.878;4.742;2023-05-07T05:26:23;16.00;99.90
10046;DHT22;5063;50.878;4.742;2023-05-07T05:28:49;16.00;99.90
10046;DHT22;5063;50.878;4.742;2023-05-07T05:31:16;16.00;99.90
10046;DHT22;5063;50.878;4.742;2023-05-07T05:33:42;16.00;99.90
10046;DHT22;5063;50.878;4.742;2023-05-07T05:36:10;16.10;99.90
10046;DHT22;5063;50.878;4.742;2023-05-07T05:38:39;16.20;99.90
10046;DHT22;5063;50.878;4.742;2023-05-07T05:41:04;16.20;99.90
10046;DHT22;5063;50.878;4.742;2023-05-07T05:43:30;16.20;99.90
10046;DHT22;5063;50.878;4.742;2023-05-07T05:45:56;16.30;99.90
10046;DHT22;5063;50.878;4.742;2023-05-07T05:48:23;16.40;99.90
10046;DHT22;5063;50.878;4.742;2023-05-07T05:50:49;16.50;99.90
10046;DHT22;5063;50.878;4.742;2023-05-07T05:53:15;16.50;99.90
10046;DHT22;5063;50.878;4.742;2023-05-07T05:55:41;16.60;99.90
10046;DHT22;5063;50.878;4.742;2023-05-07T05:58:08;16.70;99.90
10046;DHT22;5063;50.878;4.742;2023-05-07T06:00:34;16.80;99.90
10046;DHT22;5063;50.878;4.742;2023-05-07T06:03:00;16.90;99.90
10046;DHT22;5063;50.878;4.742;2023-05-07T06:05:25;17.10;99.90
10046;DHT22;5063;50.878;4.742;2023-05-07T06:07:51;17.10;99.90
10046;DHT22;5063;50.878;4.742;2023-05-07T06:10:17;17.40;99.90
10046;DHT22;5063;50.878;4.742;2023-05-07T06:12:44;17.60;99.90
10046;DHT22;5063;50.878;4.742;2023-05-07T06:15:10;17.80;99.90
10046;DHT22;5063;50.878;4.742;2023-05-07T06:17:36;17.60;99.90
10046;DHT22;5063;50.878;4.742;2023-05-07T06:20:02;17.70;99.90
10046;DHT22;5063;50.878;4.742;2023-05-07T06:22:27;17.90;99.90
10046;DHT22;5063;50.878;4.742;2023-05-07T06:24:53;18.00;99.90
10046;DHT22;5063;50.878;4.742;2023-05-07T06:27:19;18.10;99.90
10046;DHT22;5063;50.878;4.742;2023-05-07T06:29:44;18.30;99.90
10046;DHT22;5063;50.878;4.742;2023-05-07T06:32:12;18.40;99.90
10046;DHT22;5063;50.878;4.742;2023-05-07T06:34:38;18.60;99.90
10046;DHT22;5063;50.878;4.742;2023-05-07T06:37:04;18.90;99.90
10046;DHT22;5063;50.878;4.742;2023-05-07T06:39:30;18.80;99.90
10046;DHT22;5063;50.878;4.742;2023-05-07T06:41:56;18.80;99.90
10046;DHT22;5063;50.878;4.742;2023-05-07T06:44:22;18.70;99.90
10046;DHT22;5063;50.878;4.742;2023-05-07T06:46:48;18.40;99.90
10046;DHT22;5063;50.878;4.742;2023-05-07T06:49:13;18.20;99.90
10046;DHT22;5063;50.878;4.742;2023-05-07T06:51:39;17.90;99.90
10046;DHT22;5063;50.878;4.742;2023-05-07T06:54:05;17.70;99.90
10046;DHT22;5063;50.878;4.742;2023-05-07T06:56:32;17.60;99.90
10046;DHT22;5063;50.878;4.742;2023-05-07T06:58:58;17.60;99.90
10046;DHT22;5063;50.878;4.742;2023-05-07T07:01:23;17.40;99.90
10046;DHT22;5063;50.878;4.742;2023-05-07T07:03:49;17.50;99.90
10046;DHT22;5063;50.878;4.742;2023-05-07T07:06:16;17.60;99.90
10046;DHT22;5063;50.878;4.742;2023-05-07T07:08:42;17.70;99.90
10046;DHT22;5063;50.878;4.742;2023-05-07T07:11:08;17.90;99.90
10046;DHT22;5063;50.878;4.742;2023-05-07T07:13:34;18.10;99.90
10046;DHT22;5063;50.878;4.742;2023-05-07T07:16:00;18.20;99.90
10046;DHT22;5063;50.878;4.742;2023-05-07T07:18:26;18.40;99.90
10046;DHT22;5063;50.878;4.742;2023-05-07T07:20:51;18.50;99.90
10046;DHT22;5063;50.878;4.742;2023-05-07T07:23:17;18.60;99.90
10046;DHT22;5063;50.878;4.742;2023-05-07T07:25:43;18.40;99.90
10046;DHT22;5063;50.878;4.742;2023-05-07T07:28:08;18.50;99.90
10046;DHT22;5063;50.878;4.742;2023-05-07T07:30:34;18.50;99.90
10046;DHT22;5063;50.878;4.742;2023-05-07T07:33:00;18.50;99.90
10046;DHT22;5063;50.878;4.742;2023-05-07T07:35:29;18.30;99.90
10046;DHT22;5063;50.878;4.742;2023-05-07T07:37:55;18.40;99.90
10046;DHT22;5063;50.878;4.742;2023-05-07T07:40:20;18.50;99.90
10046;DHT22;5063;50.878;4.742;2023-05-07T07:42:46;18.70;99.90
10046;DHT22;5063;50.878;4.742;2023-05-07T07:45:12;18.90;99.90
10046;DHT22;5063;50.878;4.742;2023-05-07T07:47:41;18.80;99.90
10046;DHT22;5063;50.878;4.742;2023-05-07T07:50:07;18.60;99.90
10046;DHT22;5063;50.878;4.742;2023-05-07T07:52:33;18.70;99.90
10046;DHT22;5063;50.878;4.742;2023-05-07T07:54:59;18.50;99.90
10046;DHT22;5063;50.878;4.742;2023-05-07T07:57:25;18.60;99.90
10046;DHT22;5063;50.878;4.742;2023-05-07T07:59:50;18.60;99.90
10046;DHT22;5063;50.878;4.742;2023-05-07T08:02:17;18.80;99.90
10046;DHT22;5063;50.878;4.742;2023-05-07T08:04:43;18.90;99.90
10046;DHT22;5063;50.878;4.742;2023-05-07T08:07:12;19.10;99.90
10046;DHT22;5063;50.878;4.742;2023-05-07T08:09:38;19.30;99.90
10046;DHT22;5063;50.878;4.742;2023-05-07T08:12:07;19.50;99.90
10046;DHT22;5063;50.878;4.742;2023-05-07T08:14:33;19.20;99.90
10046;DHT22;5063;50.878;4.742;2023-05-07T08:17:00;19.30;99.90
10046;DHT22;5063;50.878;4.742;2023-05-07T08:19:26;19.40;99.90
10046;DHT22;5063;50.878;4.742;2023-05-07T08:21:52;19.40;99.90
10046;DHT22;5063;50.878;4.742;2023-05-07T08:24:18;19.40;99.90
10046;DHT22;5063;50.878;4.742;2023-05-07T08:26:44;19.60;99.90
10046;DHT22;5063;50.878;4.742;2023-05-07T08:29:10;19.30;99.90
10046;DHT22;5063;50.878;4.742;2023-05-07T08:31:36;19.00;99.90
10046;DHT22;5063;50.878;4.742;2023-05-07T08:34:04;19.10;99.90
10046;DHT22;5063;50.878;4.742;2023-05-07T08:36:30;19.30;99.90
10046;DHT22;5063;50.878;4.742;2023-05-07T08:38:56;19.30;99.90
10046;DHT22;5063;50.878;4.742;2023-05-07T08:41:22;19.30;99.90
10046;DHT22;5063;50.878;4.742;2023-05-07T08:43:49;19.40;99.90
10046;DHT22;5063;50.878;4.742;2023-05-07T08:46:21;19.50;99.90
10046;DHT22;5063;50.878;4.742;2023-05-07T08:48:51;19.80;99.90
10046;DHT22;5063;50.878;4.742;2023-05-07T08:51:21;19.50;99.90
10046;DHT22;5063;50.878;4.742;2023-05-07T08:53:48;19.60;99.90
10046;DHT22;5063;50.878;4.742;2023-05-07T08:56:15;19.40;99.90
10046;DHT22;5063;50.878;4.742;2023-05-07T08:58:43;19.20;99.90
10046;DHT22;5063;50.878;4.742;2023-05-07T09:01:12;19.10;99.90
10046;DHT22;5063;50.878;4.742;2023-05-07T09:03:39;19.20;99.90
10046;DHT22;5063;50.878;4.742;2023-05-07T09:06:05;19.00;99.90
10046;DHT22;5063;50.878;4.742;2023-05-07T09:08:32;19.20;99.90
10046;DHT22;5063;50.878;4.742;2023-05-07T09:10:58;19.20;99.90
10046;DHT22;5063;50.878;4.742;2023-05-07T09:13:24;19.40;99.90
10046;DHT22;5063;50.878;4.742;2023-05-07T09:15:50;19.20;99.90
10046;DHT22;5063;50.878;4.742;2023-05-07T09:18:16;19.10;99.90
10046;DHT22;5063;50.878;4.742;2023-05-07T09:20:41;19.30;99.90
10046;DHT22;5063;50.878;4.742;2023-05-07T09:23:08;19.30;99.90
10046;DHT22;5063;50.878;4.742;2023-05-07T09:25:35;19.40;99.90
10046;DHT22;5063;50.878;4.742;2023-05-07T09:28:02;19.40;99.90
10046;DHT22;5063;50.878;4.742;2023-05-07T09:30:29;19.50;99.90
10046;DHT22;5063;50.878;4.742;2023-05-07T09:32:57;19.60;99.90
10046;DHT22;5063;50.878;4.742;2023-05-07T09:35:23;19.50;99.90
10046;DHT22;5063;50.878;4.742;2023-05-07T09:37:56;19.50;99.90
10046;DHT22;5063;50.878;4.742;2023-05-07T09:40:25;19.40;99.90
10046;DHT22;5063;50.878;4.742;2023-05-07T09:42:51;19.50;99.90
10046;DHT22;5063;50.878;4.742;2023-05-07T09:45:27;19.40;99.90
10046;DHT22;5063;50.878;4.742;2023-05-07T09:47:57;19.30;99.90
10046;DHT22;5063;50.878;4.742;2023-05-07T09:50:32;19.30;99.90
10046;DHT22;5063;50.878;4.742;2023-05-07T09:53:01;19.40;99.90
10046;DHT22;5063;50.878;4.742;2023-05-07T09:55:28;19.20;99.90
10046;DHT22;5063;50.878;4.742;2023-05-07T09:57:55;19.30;99.90
10046;DHT22;5063;50.878;4.742;2023-05-07T10:00:21;19.30;99.90
10046;DHT22;5063;50.878;4.742;2023-05-07T10:02:52;19.40;99.90
10046;DHT22;5063;50.878;4.742;2023-05-07T10:05:18;19.50;99.90
10046;DHT22;5063;50.878;4.742;2023-05-07T10:07:46;19.60;99.90
10046;DHT22;5063;50.878;4.742;2023-05-07T10:10:12;19.80;99.90
10046;DHT22;5063;50.878;4.742;2023-05-07T10:12:38;19.70;99.90
10046;DHT22;5063;50.878;4.742;2023-05-07T10:15:06;19.70;99.90
10046;DHT22;5063;50.878;4.742;2023-05-07T10:17:36;19.80;99.90
10046;DHT22;5063;50.878;4.742;2023-05-07T10:20:03;19.90;99.90
10046;DHT22;5063;50.878;4.742;2023-05-07T10:22:34;20.00;99.90
10046;DHT22;5063;50.878;4.742;2023-05-07T10:25:03;20.00;99.90
10046;DHT22;5063;50.878;4.742;2023-05-07T10:27:32;19.80;99.90
10046;DHT22;5063;50.878;4.742;2023-05-07T10:30:07;19.80;99.90
10046;DHT22;5063;50.878;4.742;2023-05-07T10:32:45;20.00;99.90
10046;DHT22;5063;50.878;4.742;2023-05-07T10:35:32;19.90;99.90
10046;DHT22;5063;50.878;4.742;2023-05-07T10:38:02;20.10;99.90
10046;DHT22;5063;50.878;4.742;2023-05-07T10:40:28;19.80;99.90
10046;DHT22;5063;50.878;4.742;2023-05-07T10:43:00;19.80;99.90
10046;DHT22;5063;50.878;4.742;2023-05-07T10:45:27;20.00;99.90
10046;DHT22;5063;50.878;4.742;2023-05-07T10:48:07;20.10;99.90
10046;DHT22;5063;50.878;4.742;2023-05-07T10:50:34;20.00;99.90
10046;DHT22;5063;50.878;4.742;2023-05-07T10:55:50;19.90;99.90
10046;DHT22;5063;50.878;4.742;2023-05-07T10:58:25;19.60;99.90
10046;DHT22;5063;50.878;4.742;2023-05-07T11:01:01;19.70;99.90
10046;DHT22;5063;50.878;4.742;2023-05-07T11:03:28;19.90;99.90
10046;DHT22;5063;50.878;4.742;2023-05-07T11:06:14;19.90;99.90
10046;DHT22;5063;50.878;4.742;2023-05-07T11:11:18;20.00;99.90
10046;DHT22;5063;50.878;4.742;2023-05-07T11:13:48;20.30;99.90
10046;DHT22;5063;50.878;4.742;2023-05-07T11:16:21;20.10;99.90
10046;DHT22;5063;50.878;4.742;2023-05-07T11:18:49;20.00;99.90
10046;DHT22;5063;50.878;4.742;2023-05-07T11:21:35;20.20;99.90
10046;DHT22;5063;50.878;4.742;2023-05-07T11:24:02;20.30;99.90
10046;DHT22;5063;50.878;4.742;2023-05-07T11:26:30;20.30;99.90
10046;DHT22;5063;50.878;4.742;2023-05-07T11:28:57;20.20;99.90
10046;DHT22;5063;50.878;4.742;2023-05-07T11:31:27;19.90;99.90
10046;DHT22;5063;50.878;4.742;2023-05-07T11:33:54;20.00;99.90
10046;DHT22;5063;50.878;4.742;2023-05-07T11:36:22;20.10;99.90
10046;DHT22;5063;50.878;4.742;2023-05-07T11:38:48;20.10;99.90
10046;DHT22;5063;50.878;4.742;2023-05-07T11:41:15;20.00;99.90
10046;DHT22;5063;50.878;4.742;2023-05-07T11:43:55;20.40;99.90
10046;DHT22;5063;50.878;4.742;2023-05-07T11:46:21;20.80;99.90
10046;DHT22;5063;50.878;4.742;2023-05-07T11:48:47;21.00;99.90
10046;DHT22;5063;50.878;4.742;2023-05-07T11:51:13;21.10;99.90
10046;DHT22;5063;50.878;4.742;2023-05-07T11:53:45;21.10;99.90
10046;DHT22;5063;50.878;4.742;2023-05-07T11:56:16;21.20;99.90
10046;DHT22;5063;50.878;4.742;2023-05-07T11:58:43;21.20;99.90
10046;DHT22;5063;50.878;4.742;2023-05-07T12:01:11;21.30;99.90
10046;DHT22;5063;50.878;4.742;2023-05-07T12:03:39;21.40;99.90
10046;DHT22;5063;50.878;4.742;2023-05-07T12:06:06;21.60;99.90
10046;DHT22;5063;50.878;4.742;2023-05-07T12:08:32;21.90;99.90
10046;DHT22;5063;50.878;4.742;2023-05-07T12:10:58;22.00;99.90
10046;DHT22;5063;50.878;4.742;2023-05-07T12:13:25;22.30;99.90
10046;DHT22;5063;50.878;4.742;2023-05-07T12:15:55;22.20;99.90
10046;DHT22;5063;50.878;4.742;2023-05-07T12:18:22;22.00;99.90
10046;DHT22;5063;50.878;4.742;2023-05-07T12:20:48;22.10;99.90
10046;DHT22;5063;50.878;4.742;2023-05-07T12:23:15;22.00;99.90
10046;DHT22;5063;50.878;4.742;2023-05-07T12:25:42;22.10;99.90
10046;DHT22;5063;50.878;4.742;2023-05-07T12:28:18;22.20;99.90
10046;DHT22;5063;50.878;4.742;2023-05-07T12:30:46;22.30;99.90
10046;DHT22;5063;50.878;4.742;2023-05-07T12:33:13;22.30;99.90
10046;DHT22;5063;50.878;4.742;2023-05-07T12:35:42;22.30;99.90
10046;DHT22;5063;50.878;4.742;2023-05-07T12:38:13;22.30;99.90
10046;DHT22;5063;50.878;4.742;2023-05-07T12:40:41;22.10;99.90
10046;DHT22;5063;50.878;4.742;2023-05-07T12:43:08;22.10;99.90
10046;DHT22;5063;50.878;4.742;2023-05-07T12:45:37;22.20;99.90
10046;DHT22;5063;50.878;4.742;2023-05-07T12:48:06;22.10;99.90
10046;DHT22;5063;50.878;4.742;2023-05-07T12:50:33;21.90;99.90
10046;DHT22;5063;50.878;4.742;2023-05-07T12:52:59;22.00;99.90
10046;DHT22;5063;50.878;4.742;2023-05-07T12:55:25;22.00;99.90
10046;DHT22;5063;50.878;4.742;2023-05-07T12:57:52;22.00;99.90
10046;DHT22;5063;50.878;4.742;2023-05-07T13:00:33;22.10;99.90
10046;DHT22;5063;50.878;4.742;2023-05-07T13:02:59;21.80;99.90
10046;DHT22;5063;50.878;4.742;2023-05-07T13:05:24;21.90;99.90
10046;DHT22;5063;50.878;4.742;2023-05-07T13:07:54;21.80;99.90
10046;DHT22;5063;50.878;4.742;2023-05-07T13:10:21;21.90;99.90
10046;DHT22;5063;50.878;4.742;2023-05-07T13:12:47;22.10;99.90
10046;DHT22;5063;50.878;4.742;2023-05-07T13:15:12;21.90;99.90
10046;DHT22;5063;50.878;4.742;2023-05-07T13:17:38;22.00;99.90
10046;DHT22;5063;50.878;4.742;2023-05-07T13:20:04;22.20;99.90
10046;DHT22;5063;50.878;4.742;2023-05-07T13:22:31;22.40;99.90
10046;DHT22;5063;50.878;4.742;2023-05-07T13:24:57;22.40;99.90
10046;DHT22;5063;50.878;4.742;2023-05-07T13:27:23;22.50;99.90
10046;DHT22;5063;50.878;4.742;2023-05-07T13:29:48;22.40;99.90
10046;DHT22;5063;50.878;4.742;2023-05-07T13:32:14;22.40;99.90
10046;DHT22;5063;50.878;4.742;2023-05-07T13:34:40;22.50;99.90
10046;DHT22;5063;50.878;4.742;2023-05-07T13:37:06;22.50;99.90
10046;DHT22;5063;50.878;4.742;2023-05-07T13:39:33;22.60;99.90
10046;DHT22;5063;50.878;4.742;2023-05-07T13:41:59;22.60;99.90
10046;DHT22;5063;50.878;4.742;2023-05-07T13:44:26;22.20;99.90
10046;DHT22;5063;50.878;4.742;2023-05-07T13:46:51;22.10;99.90
10046;DHT22;5063;50.878;4.742;2023-05-07T13:49:17;21.90;99.90
10046;DHT22;5063;50.878;4.742;2023-05-07T13:51:43;21.60;99.90
10046;DHT22;5063;50.878;4.742;2023-05-07T13:54:09;21.60;99.90
10046;DHT22;5063;50.878;4.742;2023-05-07T13:56:34;21.60;99.90
10046;DHT22;5063;50.878;4.742;2023-05-07T13:59:00;21.50;99.90
10046;DHT22;5063;50.878;4.742;2023-05-07T14:01:26;21.50;99.90
10046;DHT22;5063;50.878;4.742;2023-05-07T14:03:52;21.20;99.90
10046;DHT22;5063;50.878;4.742;2023-05-07T14:06:18;21.10;99.90
10046;DHT22;5063;50.878;4.742;2023-05-07T14:08:45;21.10;99.90
10046;DHT22;5063;50.878;4.742;2023-05-07T14:11:10;21.00;99.90
10046;DHT22;5063;50.878;4.742;2023-05-07T14:13:36;21.00;99.90
10046;DHT22;5063;50.878;4.742;2023-05-07T14:16:03;21.00;99.90
10046;DHT22;5063;50.878;4.742;2023-05-07T14:18:29;21.00;99.90
10046;DHT22;5063;50.878;4.742;2023-05-07T14:20:55;21.10;99.90
10046;DHT22;5063;50.878;4.742;2023-05-07T14:23:20;21.10;99.90
10046;DHT22;5063;50.878;4.742;2023-05-07T14:25:52;21.00;99.90
10046;DHT22;5063;50.878;4.742;2023-05-07T14:28:18;21.00;99.90
10046;DHT22;5063;50.878;4.742;2023-05-07T14:30:44;20.90;99.90
10046;DHT22;5063;50.878;4.742;2023-05-07T14:33:10;20.90;99.90
10046;DHT22;5063;50.878;4.742;2023-05-07T14:35:37;21.10;99.90
10046;DHT22;5063;50.878;4.742;2023-05-07T14:38:03;20.80;99.90
10046;DHT22;5063;50.878;4.742;2023-05-07T14:40:28;20.70;99.90
10046;DHT22;5063;50.878;4.742;2023-05-07T14:42:54;20.60;99.90
10046;DHT22;5063;50.878;4.742;2023-05-07T14:45:22;20.60;99.90
10046;DHT22;5063;50.878;4.742;2023-05-07T14:47:48;20.70;99.90
10046;DHT22;5063;50.878;4.742;2023-05-07T14:50:14;20.70;99.90
10046;DHT22;5063;50.878;4.742;2023-05-07T14:52:39;20.90;99.90
10046;DHT22;5063;50.878;4.742;2023-05-07T14:55:05;21.10;99.90
10046;DHT22;5063;50.878;4.742;2023-05-07T14:57:31;21.30;99.90
10046;DHT22;5063;50.878;4.742;2023-05-07T15:00:01;21.40;99.90
10046;DHT22;5063;50.878;4.742;2023-05-07T15:02:27;21.60;99.90
10046;DHT22;5063;50.878;4.742;2023-05-07T15:04:53;21.50;99.90
10046;DHT22;5063;50.878;4.742;2023-05-07T15:07:18;21.50;99.90
10046;DHT22;5063;50.878;4.742;2023-05-07T15:09:44;21.60;99.90
10046;DHT22;5063;50.878;4.742;2023-05-07T15:12:11;21.40;99.90
10046;DHT22;5063;50.878;4.742;2023-05-07T15:14:38;21.30;99.90
10046;DHT22;5063;50.878;4.742;2023-05-07T15:17:04;21.20;99.90
10046;DHT22;5063;50.878;4.742;2023-05-07T15:19:30;21.20;99.90
10046;DHT22;5063;50.878;4.742;2023-05-07T15:21:57;21.20;99.90
10046;DHT22;5063;50.878;4.742;2023-05-07T15:24:23;21.30;99.90
10046;DHT22;5063;50.878;4.742;2023-05-07T15:26:49;21.40;99.90
10046;DHT22;5063;50.878;4.742;2023-05-07T15:29:16;21.40;99.90
10046;DHT22;5063;50.878;4.742;2023-05-07T15:31:41;21.50;99.90
10046;DHT22;5063;50.878;4.742;2023-05-07T15:34:07;21.60;99.90
10046;DHT22;5063;50.878;4.742;2023-05-07T15:36:33;21.50;99.90
10046;DHT22;5063;50.878;4.742;2023-05-07T15:38:59;21.40;99.90
10046;DHT22;5063;50.878;4.742;2023-05-07T15:41:25;21.30;99.90
10046;DHT22;5063;50.878;4.742;2023-05-07T15:43:52;21.20;99.90
10046;DHT22;5063;50.878;4.742;2023-05-07T15:46:19;21.20;99.90
10046;DHT22;5063;50.878;4.742;2023-05-07T15:48:45;21.20;99.90